Time;durP1;ratioP1;P1;durP2;ratioP2;P2;SDS_P1;SDS_P2;PMS_P1;PMS_P2;Temp;Humidity;BMP_temperature;BMP_pressure;BME280_temperature;BME280_humidity;BME280_pressure;Samples;Min_cycle;Max_cycle;Signal;HPM_P1;HPM_P2
2023/05/24 00:01:10;;;;;;;;;;;;;;;;;;5089112;28;20468;-62
2023/05/24 00:03:38;;;;;;;;;;;;;;;;;;5090780;28;19939;-62
2023/05/24 00:06:05;;;;;;;;;;;;;;;;;;5086662;28;20443;-62
2023/05/24 00:08:31;;;;;;;;;;;;;;;;;;5084776;28;19924;-62
2023/05/24 00:10:57;;;;;;;;;;;;;;;;;;5092748;28;19927;-62
2023/05/24 00:13:23;;;;;;;;;;;;;;;;;;5088671;28;19959;-62
2023/05/24 00:15:49;;;;;;;;;;;;;;;;;;5092574;28;19994;-62
2023/05/24 00:18:18;;;;;;;;;;;;;;;;;;5091551;28;19924;-62
2023/05/24 00:20:44;;;;;;;;;;;;;;;;;;5080800;28;19935;-62
2023/05/24 00:23:10;;;;;;;;;;;;;;;;;;5091045;28;19927;-62
2023/05/24 00:25:36;;;;;;;;;;;;;;;;;;5080678;28;20281;-62
2023/05/24 00:28:02;;;;;;;;;;;;;;;;;;5057918;28;19979;-62
2023/05/24 00:30:28;;;;;;;;;;;;;;;;;;5091660;28;19977;-61
2023/05/24 00:32:54;;;;;;;;;;;;;;;;;;5082754;28;19959;-61
2023/05/24 00:35:20;;;;;;;;;;;;;;;;;;5085899;28;20022;-62
2023/05/24 00:37:46;;;;;;;;;;;;;;;;;;5083238;28;19928;-62
2023/05/24 00:40:12;;;;;;;;;;;;;;;;;;5093505;28;19924;-62
2023/05/24 00:42:38;;;;;;;;;;;;;;;;;;5094090;28;19931;-63
2023/05/24 00:45:05;;;;;;;;;;;;;;;;;;5092089;28;19931;-64
2023/05/24 00:47:31;;;;;;;;;;;;;;;;;;5077459;28;19921;-63
2023/05/24 00:49:57;;;;;;;;;;;;;;;;;;5077566;28;19978;-63
2023/05/24 00:52:23;;;;;;;;;;;;;;;;;;5091161;28;20284;-63
2023/05/24 00:54:49;;;;;;;;;;;;;;;;;;5083223;28;19920;-64
2023/05/24 00:57:15;;;;;;;;;;;;;;;;;;5086285;28;20252;-63
2023/05/24 00:59:41;;;;;;;;;;;;;;;;;;5091811;28;20014;-64
2023/05/24 01:02:07;;;;;;;;;;;;;;;;;;5090929;28;19963;-63
2023/05/24 01:04:33;;;;;;;;;;;;;;;;;;5079563;28;19989;-63
2023/05/24 01:06:58;;;;;;;;;;;;;;;;;;5082530;28;20650;-63
2023/05/24 01:09:24;;;;;;;;;;;;;;;;;;5090945;28;19931;-63
2023/05/24 01:11:50;;;;;;;;;;;;;;;;;;5091729;28;20471;-63
2023/05/24 01:14:16;;;;;;;;;;;;;;;;;;5091313;28;19966;-64
2023/05/24 01:16:45;;;;;;;;;;;;;;;;;;5092589;28;19932;-64
2023/05/24 01:19:12;;;;;;;;;;;;;;;;;;5084197;28;20057;-64
2023/05/24 01:21:38;;;;;;;;;;;;;;;;;;5086125;28;19920;-64
2023/05/24 01:24:04;;;;;;;;;;;;;;;;;;5092222;28;19928;-64
2023/05/24 01:26:30;;;;;;;;;;;;;;;;;;5091450;28;19953;-64
2023/05/24 01:28:56;;;;;;;;;;;;;;;;;;5092574;28;19945;-64
2023/05/24 01:31:21;;;;;;;;;;;;;;;;;;5057093;28;20426;-64
2023/05/24 01:33:47;;;;;;;;;;;;;;;;;;5083024;28;20004;-64
2023/05/24 01:36:13;;;;;;;;;;;;;;;;;;5088927;28;19975;-64
2023/05/24 01:38:39;;;;;;;;;;;;;;;;;;5080207;28;19931;-64
2023/05/24 01:41:05;;;;;;;;;;;;;;;;;;5088208;28;20444;-64
2023/05/24 01:43:32;;;;;;;;;;;;;;;;;;5090576;28;20104;-64
2023/05/24 01:45:58;;;;;;;;;;;;;;;;;;5091243;28;19924;-64
2023/05/24 01:48:24;;;;;;;;;;;;;;;;;;5089134;28;19920;-64
2023/05/24 01:50:50;;;;;;;;;;;;;;;;;;5079808;28;19963;-64
2023/05/24 01:53:16;;;;;;;;;;;;;;;;;;5090850;28;19930;-63
2023/05/24 01:55:41;;;;;;;;;;;;;;;;;;5092810;28;20346;-64
2023/05/24 01:58:07;;;;;;;;;;;;;;;;;;5092003;28;19935;-64
2023/05/24 02:00:33;;;;;;;;;;;;;;;;;;5090464;28;19928;-64
2023/05/24 02:03:00;;;;;;;;;;;;;;;;;;5088062;28;19924;-64
2023/05/24 02:05:26;;;;;;;;;;;;;;;;;;5085175;28;19920;-63
2023/05/24 02:07:52;;;;;;;;;;;;;;;;;;5090351;28;19942;-63
2023/05/24 02:10:18;;;;;;;;;;;;;;;;;;5089766;28;20443;-63
2023/05/24 02:12:44;;;;;;;;;;;;;;;;;;5091821;28;19920;-63
2023/05/24 02:15:10;;;;;;;;;;;;;;;;;;5088711;28;19924;-64
2023/05/24 02:17:36;;;;;;;;;;;;;;;;;;5085941;28;20328;-63
2023/05/24 02:20:02;;;;;;;;;;;;;;;;;;5091654;28;19934;-63
2023/05/24 02:22:28;;;;;;;;;;;;;;;;;;5090254;28;19920;-64
2023/05/24 02:24:54;;;;;;;;;;;;;;;;;;5091072;28;20023;-64
2023/05/24 02:27:20;;;;;;;;;;;;;;;;;;5091116;28;19966;-64
2023/05/24 02:29:47;;;;;;;;;;;;;;;;;;5088650;28;19968;-64
2023/05/24 02:32:13;;;;;;;;;;;;;;;;;;5084924;28;19932;-63
2023/05/24 02:34:39;;;;;;;;;;;;;;;;;;5089281;28;19974;-64
2023/05/24 02:37:05;;;;;;;;;;;;;;;;;;5081256;28;19963;-64
2023/05/24 02:39:31;;;;;;;;;;;;;;;;;;5088034;28;20018;-63
2023/05/24 02:41:57;;;;;;;;;;;;;;;;;;5089069;28;19963;-64
2023/05/24 02:44:22;;;;;;;;;;;;;;;;;;5078105;28;20365;-64
2023/05/24 02:46:48;;;;;;;;;;;;;;;;;;5079880;28;20588;-64
2023/05/24 02:49:14;;;;;;;;;;;;;;;;;;5086197;28;19920;-63
2023/05/24 02:51:40;;;;;;;;;;;;;;;;;;5089347;28;20016;-63
2023/05/24 02:54:06;;;;;;;;;;;;;;;;;;5091117;28;20476;-63
2023/05/24 02:56:33;;;;;;;;;;;;;;;;;;5088945;28;19965;-64
2023/05/24 02:58:59;;;;;;;;;;;;;;;;;;5085788;28;19929;-64
2023/05/24 03:01:25;;;;;;;;;;;;;;;;;;5082681;28;20332;-64
2023/05/24 03:03:51;;;;;;;;;;;;;;;;;;5083757;28;20281;-64
2023/05/24 03:06:17;;;;;;;;;;;;;;;;;;5087760;28;19927;-64
2023/05/24 03:08:43;;;;;;;;;;;;;;;;;;5087673;28;19928;-64
2023/05/24 03:11:09;;;;;;;;;;;;;;;;;;5088419;28;19928;-64
2023/05/24 03:13:35;;;;;;;;;;;;;;;;;;5084343;28;19943;-64
2023/05/24 03:16:00;;;;;;;;;;;;;;;;;;5080305;28;19924;-64
2023/05/24 03:18:26;;;;;;;;;;;;;;;;;;5089575;28;19930;-64
2023/05/24 03:20:52;;;;;;;;;;;;;;;;;;5087699;28;19924;-63
2023/05/24 03:23:18;;;;;;;;;;;;;;;;;;5083966;28;20288;-63
2023/05/24 03:25:44;;;;;;;;;;;;;;;;;;5087307;28;20424;-64
2023/05/24 03:28:13;;;;;;;;;;;;;;;;;;5079589;28;19955;-65
2023/05/24 03:30:39;;;;;;;;;;;;;;;;;;5084310;28;19920;-64
2023/05/24 03:33:05;;;;;;;;;;;;;;;;;;5087979;28;19927;-64
2023/05/24 03:35:31;;;;;;;;;;;;;;;;;;5085166;28;19932;-63
2023/05/24 03:37:57;;;;;;;;;;;;;;;;;;5088755;28;19932;-64
2023/05/24 03:40:24;;;;;;;;;;;;;;;;;;5087132;28;19966;-63
2023/05/24 03:42:50;;;;;;;;;;;;;;;;;;5077641;28;20335;-64
2023/05/24 03:45:16;;;;;;;;;;;;;;;;;;5084942;28;19920;-64
2023/05/24 03:47:42;;;;;;;;;;;;;;;;;;5081753;28;19920;-64
2023/05/24 03:50:08;;;;;;;;;;;;;;;;;;5083693;28;20005;-64
2023/05/24 03:52:34;;;;;;;;;;;;;;;;;;5090813;28;19924;-63
2023/05/24 03:55:00;;;;;;;;;;;;;;;;;;5078791;28;19920;-63
2023/05/24 03:57:25;;;;;;;;;;;;;;;;;;5071386;28;19930;-64
2023/05/24 03:59:51;;;;;;;;;;;;;;;;;;5082438;28;19924;-64
2023/05/24 04:02:17;;;;;;;;;;;;;;;;;;5087129;28;19928;-66
2023/05/24 04:04:43;;;;;;;;;;;;;;;;;;5088193;28;19920;-65
2023/05/24 04:07:10;;;;;;;;;;;;;;;;;;5088834;28;19973;-65
2023/05/24 04:09:36;;;;;;;;;;;;;;;;;;5088351;28;20001;-63
2023/05/24 04:12:02;;;;;;;;;;;;;;;;;;5087019;28;20387;-63
2023/05/24 04:14:28;;;;;;;;;;;;;;;;;;5087348;28;19974;-64
2023/05/24 04:16:54;;;;;;;;;;;;;;;;;;5090615;28;19927;-63
2023/05/24 04:19:20;;;;;;;;;;;;;;;;;;5071725;28;19926;-64
2023/05/24 04:21:46;;;;;;;;;;;;;;;;;;5090498;28;19924;-64
2023/05/24 04:24:12;;;;;;;;;;;;;;;;;;5091854;28;19928;-63
2023/05/24 04:26:38;;;;;;;;;;;;;;;;;;5089105;28;19977;-64
2023/05/24 04:29:03;;;;;;;;;;;;;;;;;;5091126;28;19927;-64
2023/05/24 04:31:32;;;;;;;;;;;;;;;;;;5090597;28;19947;-64
2023/05/24 04:33:58;;;;;;;;;;;;;;;;;;5093680;28;19924;-64
2023/05/24 04:36:24;;;;;;;;;;;;;;;;;;5091494;28;20012;-64
2023/05/24 04:38:52;;;;;;;;;;;;;;;;;;5092026;28;19924;-64
2023/05/24 04:41:18;;;;;;;;;;;;;;;;;;5086478;28;19924;-64
2023/05/24 04:43:44;;;;;;;;;;;;;;;;;;5092138;28;19924;-64
2023/05/24 04:46:10;;;;;;;;;;;;;;;;;;5092331;28;19920;-64
2023/05/24 04:48:36;;;;;;;;;;;;;;;;;;5090894;28;20354;-64
2023/05/24 04:51:02;;;;;;;;;;;;;;;;;;5110560;22;19985;-64
2023/05/24 04:53:27;;;;;;;;;;;;;;;;;;5092389;28;19924;-64
2023/05/24 04:55:53;;;;;;;;;;;;;;;;;;5081072;28;19969;-64
2023/05/24 04:58:19;;;;;;;;;;;;;;;;;;5092673;28;19976;-63
2023/05/24 05:00:45;;;;;;;;;;;;;;;;;;5085932;28;20559;-64
2023/05/24 05:03:11;;;;;;;;;;;;;;;;;;5074035;28;20381;-63
2023/05/24 05:05:37;;;;;;;;;;;;;;;;;;5090496;28;19924;-64
2023/05/24 05:08:03;;;;;;;;;;;;;;;;;;5087679;28;19924;-63
2023/05/24 05:10:29;;;;;;;;;;;;;;;;;;5086131;28;19927;-64
2023/05/24 05:12:55;;;;;;;;;;;;;;;;;;5089777;28;20378;-64
2023/05/24 05:15:21;;;;;;;;;;;;;;;;;;5090761;28;19982;-64
2023/05/24 05:17:47;;;;;;;;;;;;;;;;;;5090420;28;19924;-64
2023/05/24 05:20:13;;;;;;;;;;;;;;;;;;5090531;28;20293;-64
2023/05/24 05:22:38;;;;;;;;;;;;;;;;;;5089048;28;20317;-64
2023/05/24 05:25:05;;;;;;;;;;;;;;;;;;5087112;28;19935;-65
2023/05/24 05:27:31;;;;;;;;;;;;;;;;;;5092231;28;19945;-64
2023/05/24 05:29:56;;;;;;;;;;;;;;;;;;5082973;28;20250;-64
2023/05/24 05:32:22;;;;;;;;;;;;;;;;;;5080528;28;19927;-64
2023/05/24 05:34:48;;;;;;;;;;;;;;;;;;5083079;28;19931;-64
2023/05/24 05:37:14;;;;;;;;;;;;;;;;;;5081528;28;19924;-64
2023/05/24 05:39:40;;;;;;;;;;;;;;;;;;5087923;28;20014;-65
2023/05/24 05:42:06;;;;;;;;;;;;;;;;;;5092658;28;20358;-65
2023/05/24 05:44:32;;;;;;;;;;;;;;;;;;5091861;28;19921;-63
2023/05/24 05:46:58;;;;;;;;;;;;;;;;;;5073600;28;20312;-63
2023/05/24 05:49:24;;;;;;;;;;;;;;;;;;5072446;28;19970;-64
2023/05/24 05:51:51;;;;;;;;;;;;;;;;;;5074464;28;19974;-64
2023/05/24 05:54:17;;;;;;;;;;;;;;;;;;5089517;28;19931;-64
2023/05/24 05:56:46;;;;;;;;;;;;;;;;;;5088153;28;19924;-65
2023/05/24 05:59:12;;;;;;;;;;;;;;;;;;5087615;28;19924;-64
2023/05/24 06:01:38;;;;;;;;;;;;;;;;;;5086584;28;20611;-64
2023/05/24 06:04:04;;;;;;;;;;;;;;;;;;5079702;28;19966;-64
2023/05/24 06:06:30;;;;;;;;;;;;;;;;;;5063458;28;19920;-65
2023/05/24 06:08:56;;;;;;;;;;;;;;;;;;5081705;28;20044;-65
2023/05/24 06:11:22;;;;;;;;;;;;;;;;;;5090281;28;19920;-65
2023/05/24 06:13:48;;;;;;;;;;;;;;;;;;5077012;28;19943;-65
2023/05/24 06:16:14;;;;;;;;;;;;;;;;;;5072909;28;20685;-65
2023/05/24 06:18:41;;;;;;;;;;;;;;;;;;5088814;28;20398;-65
2023/05/24 06:21:09;;;;;;;;;;;;;;;;;;5089482;28;19963;-64
2023/05/24 06:23:35;;;;;;;;;;;;;;;;;;5088160;28;19970;-65
2023/05/24 06:26:01;;;;;;;;;;;;;;;;;;5087468;28;19924;-65
2023/05/24 06:28:27;;;;;;;;;;;;;;;;;;5081937;28;19933;-65
2023/05/24 06:30:53;;;;;;;;;;;;;;;;;;5088958;28;20010;-65
2023/05/24 06:33:19;;;;;;;;;;;;;;;;;;5086851;28;20053;-65
2023/05/24 06:35:45;;;;;;;;;;;;;;;;;;5075874;28;19932;-63
2023/05/24 06:38:11;;;;;;;;;;;;;;;;;;5081200;28;19942;-64
2023/05/24 06:40:37;;;;;;;;;;;;;;;;;;5090681;28;20373;-64
2023/05/24 06:43:03;;;;;;;;;;;;;;;;;;5080242;28;19928;-64
2023/05/24 06:45:29;;;;;;;;;;;;;;;;;;5089520;28;19942;-64
2023/05/24 06:47:55;;;;;;;;;;;;;;;;;;5089507;28;20003;-64
2023/05/24 06:50:21;;;;;;;;;;;;;;;;;;5074248;28;19920;-64
2023/05/24 06:52:47;;;;;;;;;;;;;;;;;;5080387;28;19929;-64
2023/05/24 06:55:13;;;;;;;;;;;;;;;;;;5079098;28;20023;-65
2023/05/24 06:57:39;;;;;;;;;;;;;;;;;;5079414;28;20353;-65
2023/05/24 07:00:10;;;;;;;;;;;;;;;;;;5084204;28;19924;-61
2023/05/24 07:02:36;;;;;;;;;;;;;;;;;;5087822;28;19973;-61
2023/05/24 07:05:02;;;;;;;;;;;;;;;;;;5071207;28;19953;-61
2023/05/24 07:07:28;;;;;;;;;;;;;;;;;;5071706;28;19967;-61
2023/05/24 07:09:54;;;;;;;;;;;;;;;;;;5077005;28;20272;-61
2023/05/24 07:12:20;;;;;;;;;;;;;;;;;;5084281;28;19970;-61
2023/05/24 07:14:46;;;;;;;;;;;;;;;;;;5088989;28;20020;-62
2023/05/24 07:17:12;;;;;;;;;;;;;;;;;;5080799;28;19932;-60
2023/05/24 07:19:38;;;;;;;;;;;;;;;;;;5082276;28;19928;-61
2023/05/24 07:22:04;;;;;;;;;;;;;;;;;;5078335;28;19928;-61
2023/05/24 07:24:30;;;;;;;;;;;;;;;;;;5077531;28;19924;-60
2023/05/24 07:26:56;;;;;;;;;;;;;;;;;;5090528;28;20560;-60
2023/05/24 07:29:22;;;;;;;;;;;;;;;;;;5080390;28;19924;-61
2023/05/24 07:31:48;;;;;;;;;;;;;;;;;;5082387;28;19931;-61
2023/05/24 07:34:15;;;;;;;;;;;;;;;;;;5074768;28;20373;-62
2023/05/24 07:36:41;;;;;;;;;;;;;;;;;;5082482;28;20007;-60
2023/05/24 07:39:08;;;;;;;;;;;;;;;;;;5085946;28;20006;-60
2023/05/24 07:41:35;;;;;;;;;;;;;;;;;;5077513;28;19929;-61
2023/05/24 07:44:01;;;;;;;;;;;;;;;;;;5066726;28;19920;-61
2023/05/24 07:46:26;;;;;;;;;;;;;;;;;;5075215;28;20424;-60
2023/05/24 07:48:52;;;;;;;;;;;;;;;;;;5086059;28;19924;-62
2023/05/24 07:51:19;;;;;;;;;;;;;;;;;;5084478;28;19928;-61
2023/05/24 07:53:45;;;;;;;;;;;;;;;;;;5089527;28;19955;-61
2023/05/24 07:56:11;;;;;;;;;;;;;;;;;;5088026;28;20383;-62
2023/05/24 07:58:39;;;;;;;;;;;;;;;;;;5092992;28;20007;-63
2023/05/24 08:01:05;;;;;;;;;;;;;;;;;;5084207;28;19974;-62
2023/05/24 08:03:31;;;;;;;;;;;;;;;;;;5090525;28;20285;-62
2023/05/24 08:05:57;;;;;;;;;;;;;;;;;;5092098;28;19920;-61
2023/05/24 08:08:23;;;;;;;;;;;;;;;;;;5093109;28;20051;-61
2023/05/24 08:10:49;;;;;;;;;;;;;;;;;;5087314;28;20384;-62
2023/05/24 08:13:15;;;;;;;;;;;;;;;;;;5078546;28;20017;-62
2023/05/24 08:15:41;;;;;;;;;;;;;;;;;;5087637;28;20019;-62
2023/05/24 08:18:08;;;;;;;;;;;;;;;;;;5076952;28;20342;-62
2023/05/24 08:20:35;;;;;;;;;;;;;;;;;;5067846;28;19975;-62
2023/05/24 08:23:01;;;;;;;;;;;;;;;;;;5089675;28;19980;-62
2023/05/24 08:25:27;;;;;;;;;;;;;;;;;;5087141;28;19924;-63
2023/05/24 08:27:54;;;;;;;;;;;;;;;;;;5094236;28;20510;-62
2023/05/24 08:30:20;;;;;;;;;;;;;;;;;;5090345;28;19960;-62
2023/05/24 08:32:46;;;;;;;;;;;;;;;;;;5073362;28;20436;-62
2023/05/24 08:35:12;;;;;;;;;;;;;;;;;;5090867;28;19920;-62
2023/05/24 08:37:38;;;;;;;;;;;;;;;;;;5094623;28;19927;-62
2023/05/24 08:40:04;;;;;;;;;;;;;;;;;;5094378;28;19924;-62
2023/05/24 08:42:30;;;;;;;;;;;;;;;;;;5089154;28;19920;-61
2023/05/24 08:44:56;;;;;;;;;;;;;;;;;;5088556;28;19931;-61
2023/05/24 08:47:22;;;;;;;;;;;;;;;;;;5087096;28;19921;-62
2023/05/24 08:49:48;;;;;;;;;;;;;;;;;;5094246;28;19920;-62
2023/05/24 08:52:14;;;;;;;;;;;;;;;;;;5094682;28;19940;-62
2023/05/24 08:54:40;;;;;;;;;;;;;;;;;;5093366;28;20285;-62
2023/05/24 08:57:06;;;;;;;;;;;;;;;;;;5092905;28;20269;-62
2023/05/24 08:59:32;;;;;;;;;;;;;;;;;;5087394;28;19997;-61
2023/05/24 09:01:58;;;;;;;;;;;;;;;;;;5073979;28;20003;-61
2023/05/24 09:04:24;;;;;;;;;;;;;;;;;;5075105;28;19920;-62
2023/05/24 09:06:50;;;;;;;;;;;;;;;;;;5092553;28;19927;-62
2023/05/24 09:09:16;;;;;;;;;;;;;;;;;;5084059;28;20444;-62
2023/05/24 09:11:42;;;;;;;;;;;;;;;;;;5080971;28;19924;-62
2023/05/24 09:14:08;;;;;;;;;;;;;;;;;;5089177;28;20578;-62
2023/05/24 09:16:33;;;;;;;;;;;;;;;;;;5091595;28;19924;-62
2023/05/24 09:19:00;;;;;;;;;;;;;;;;;;5093309;28;19924;-62
2023/05/24 09:21:26;;;;;;;;;;;;;;;;;;5090923;28;20373;-62
2023/05/24 09:23:52;;;;;;;;;;;;;;;;;;5074149;28;19924;-62
2023/05/24 09:26:18;;;;;;;;;;;;;;;;;;5092881;28;20001;-62
2023/05/24 09:28:44;;;;;;;;;;;;;;;;;;5093615;28;19935;-62
2023/05/24 09:31:11;;;;;;;;;;;;;;;;;;5092377;28;19920;-62
2023/05/24 09:33:36;;;;;;;;;;;;;;;;;;5083855;28;19998;-62
2023/05/24 09:36:02;;;;;;;;;;;;;;;;;;5073571;28;19925;-61
2023/05/24 09:38:28;;;;;;;;;;;;;;;;;;5079051;28;19927;-62
2023/05/24 09:40:54;;;;;;;;;;;;;;;;;;5090758;28;20265;-62
2023/05/24 09:43:20;;;;;;;;;;;;;;;;;;5091858;28;19924;-62
2023/05/24 09:45:47;;;;;;;;;;;;;;;;;;5090191;28;19927;-62
2023/05/24 09:48:14;;;;;;;;;;;;;;;;;;5079691;28;19951;-63
2023/05/24 09:50:40;;;;;;;;;;;;;;;;;;5092946;28;20276;-63
2023/05/24 09:53:06;;;;;;;;;;;;;;;;;;5092967;28;19924;-62
2023/05/24 09:55:31;;;;;;;;;;;;;;;;;;5090779;28;19974;-61
2023/05/24 09:57:59;;;;;;;;;;;;;;;;;;5091404;28;22521;-62
2023/05/24 10:00:25;;;;;;;;;;;;;;;;;;5087639;28;19927;-62
2023/05/24 10:02:51;;;;;;;;;;;;;;;;;;5092775;28;19953;-62
2023/05/24 10:05:17;;;;;;;;;;;;;;;;;;5090731;28;19920;-62
2023/05/24 10:07:43;;;;;;;;;;;;;;;;;;5092297;28;20328;-62
2023/05/24 10:10:09;;;;;;;;;;;;;;;;;;5089158;28;19927;-62
2023/05/24 10:12:35;;;;;;;;;;;;;;;;;;5084102;28;20006;-62
2023/05/24 10:15:01;;;;;;;;;;;;;;;;;;5087990;28;19920;-62
2023/05/24 10:17:27;;;;;;;;;;;;;;;;;;5087405;28;19966;-66
2023/05/24 10:19:53;;;;;;;;;;;;;;;;;;5089634;28;19962;-62
2023/05/24 10:22:21;;;;;;;;;;;;;;;;;;5089807;28;20520;-61
2023/05/24 10:24:47;;;;;;;;;;;;;;;;;;5082595;28;19927;-60
2023/05/24 10:27:12;;;;;;;;;;;;;;;;;;5088717;28;19927;-61
2023/05/24 10:29:39;;;;;;;;;;;;;;;;;;5089222;28;19924;-64
2023/05/24 10:32:05;;;;;;;;;;;;;;;;;;5084586;28;19924;-64
2023/05/24 10:34:31;;;;;;;;;;;;;;;;;;5087984;28;20341;-64
2023/05/24 10:36:57;;;;;;;;;;;;;;;;;;5087406;28;19964;-64
2023/05/24 10:39:22;;;;;;;;;;;;;;;;;;5084191;28;19924;-64
2023/05/24 10:41:48;;;;;;;;;;;;;;;;;;5086501;28;19929;-65
2023/05/24 10:44:16;;;;;;;;;;;;;;;;;;5083988;28;19935;-63
2023/05/24 10:46:42;;;;;;;;;;;;;;;;;;5084613;28;19931;-63
2023/05/24 10:49:08;;;;;;;;;;;;;;;;;;5083422;28;19920;-63
2023/05/24 10:51:34;;;;;;;;;;;;;;;;;;5087142;28;20284;-63
2023/05/24 10:54:00;;;;;;;;;;;;;;;;;;5079581;28;19972;-65
2023/05/24 10:56:26;;;;;;;;;;;;;;;;;;5062197;28;19920;-64
2023/05/24 10:58:52;;;;;;;;;;;;;;;;;;5078204;28;19972;-62
2023/05/24 11:01:18;;;;;;;;;;;;;;;;;;5082869;28;19924;-61
2023/05/24 11:03:44;;;;;;;;;;;;;;;;;;5084047;28;19928;-61
2023/05/24 11:06:10;;;;;;;;;;;;;;;;;;5090339;28;20001;-61
2023/05/24 11:08:36;;;;;;;;;;;;;;;;;;5089824;28;20368;-62
2023/05/24 11:11:03;;;;;;;;;;;;;;;;;;5075735;28;19927;-61
2023/05/24 11:13:29;;;;;;;;;;;;;;;;;;5077529;28;20377;-60
2023/05/24 11:15:55;;;;;;;;;;;;;;;;;;5088557;28;19926;-61
2023/05/24 11:18:20;;;;;;;;;;;;;;;;;;5079228;28;20358;-62
2023/05/24 11:20:46;;;;;;;;;;;;;;;;;;5075867;22;19933;-63
2023/05/24 11:23:12;;;;;;;;;;;;;;;;;;5017321;28;19932;-63
2023/05/24 11:25:38;;;;;;;;;;;;;;;;;;5028421;28;20007;-63
2023/05/24 11:28:04;;;;;;;;;;;;;;;;;;5027557;28;20590;-63
2023/05/24 11:30:33;;;;;;;;;;;;;;;;;;5025847;28;19925;-61
2023/05/24 11:33:01;;;;;;;;;;;;;;;;;;5030205;28;19960;-60
2023/05/24 11:35:27;;;;;;;;;;;;;;;;;;5025658;28;19933;-60
2023/05/24 11:37:52;;;;;;;;;;;;;;;;;;5028097;28;19929;-61
2023/05/24 11:40:19;;;;;;;;;;;;;;;;;;5025189;28;19929;-61
2023/05/24 11:42:45;;;;;;;;;;;;;;;;;;5029975;28;19933;-60
2023/05/24 11:45:12;;;;;;;;;;;;;;;;;;5031885;28;20296;-61
2023/05/24 11:47:38;;;;;;;;;;;;;;;;;;5019628;28;19922;-61
2023/05/24 11:50:05;;;;;;;;;;;;;;;;;;5025824;28;19921;-60
2023/05/24 11:52:31;;;;;;;;;;;;;;;;;;5030246;28;19929;-60
2023/05/24 11:54:57;;;;;;;;;;;;;;;;;;4999014;28;20396;-60
2023/05/24 11:57:23;;;;;;;;;;;;;;;;;;5031858;28;19933;-63
2023/05/24 11:59:49;;;;;;;;;;;;;;;;;;5028462;28;19932;-61
2023/05/24 12:02:15;;;;;;;;;;;;;;;;;;5032100;28;20401;-61
2023/05/24 12:04:41;;;;;;;;;;;;;;;;;;5030058;28;19932;-61
2023/05/24 12:07:06;;;;;;;;;;;;;;;;;;5006974;28;19921;-61
2023/05/24 12:09:33;;;;;;;;;;;;;;;;;;5018560;28;19925;-61
2023/05/24 12:12:00;;;;;;;;;;;;;;;;;;5010482;28;19932;-61
2023/05/24 12:14:26;;;;;;;;;;;;;;;;;;5029759;28;19960;-62
2023/05/24 12:16:52;;;;;;;;;;;;;;;;;;5032312;28;20019;-61
2023/05/24 12:19:18;;;;;;;;;;;;;;;;;;5029649;28;19968;-61
2023/05/24 12:21:44;;;;;;;;;;;;;;;;;;5032370;28;20319;-61
2023/05/24 12:24:10;;;;;;;;;;;;;;;;;;5034795;28;19932;-61
2023/05/24 12:26:36;;;;;;;;;;;;;;;;;;5035040;28;19925;-61
2023/05/24 12:29:02;;;;;;;;;;;;;;;;;;5034875;28;19957;-61
2023/05/24 12:31:28;;;;;;;;;;;;;;;;;;5033343;28;20033;-60
2023/05/24 12:33:54;;;;;;;;;;;;;;;;;;5034701;28;20036;-61
2023/05/24 12:36:20;;;;;;;;;;;;;;;;;;5033435;28;20294;-61
2023/05/24 12:38:46;;;;;;;;;;;;;;;;;;5034624;28;19925;-60
2023/05/24 12:41:12;;;;;;;;;;;;;;;;;;5034684;28;19925;-61
2023/05/24 12:43:38;;;;;;;;;;;;;;;;;;5034612;28;19929;-61
2023/05/24 12:46:04;;;;;;;;;;;;;;;;;;5034535;28;19928;-61
2023/05/24 12:48:29;;;;;;;;;;;;;;;;;;5034533;28;20351;-61
2023/05/24 12:50:55;;;;;;;;;;;;;;;;;;5032959;28;20047;-61
2023/05/24 12:53:23;;;;;;;;;;;;;;;;;;5034321;28;19964;-61
2023/05/24 12:55:50;;;;;;;;;;;;;;;;;;5032899;28;19933;-61
2023/05/24 12:58:18;;;;;;;;;;;;;;;;;;5034187;28;20011;-61
2023/05/24 13:00:48;;;;;;;;;;;;;;;;;;5034187;28;19928;-61
2023/05/24 13:03:14;;;;;;;;;;;;;;;;;;5033064;28;19964;-61
2023/05/24 13:05:41;;;;;;;;;;;;;;;;;;5033977;28;19961;-61
2023/05/24 13:08:07;;;;;;;;;;;;;;;;;;5034182;28;20313;-61
2023/05/24 13:10:33;;;;;;;;;;;;;;;;;;5033859;28;19921;-61
2023/05/24 13:12:59;;;;;;;;;;;;;;;;;;5032550;28;19921;-61
2023/05/24 13:15:26;;;;;;;;;;;;;;;;;;5034037;28;19921;-61
2023/05/24 13:17:52;;;;;;;;;;;;;;;;;;5033668;28;19925;-61
2023/05/24 13:20:20;;;;;;;;;;;;;;;;;;5032308;28;19925;-62
2023/05/24 13:22:47;;;;;;;;;;;;;;;;;;5033660;28;19921;-61
2023/05/24 13:25:12;;;;;;;;;;;;;;;;;;5033712;28;19932;-61
2023/05/24 13:27:38;;;;;;;;;;;;;;;;;;5033666;28;19921;-61
2023/05/24 13:30:05;;;;;;;;;;;;;;;;;;5033705;28;20251;-61
2023/05/24 13:32:32;;;;;;;;;;;;;;;;;;5033217;28;19932;-61
2023/05/24 13:34:58;;;;;;;;;;;;;;;;;;5033501;28;19921;-61
2023/05/24 13:37:24;;;;;;;;;;;;;;;;;;5033635;28;19925;-61
2023/05/24 13:39:50;;;;;;;;;;;;;;;;;;5033224;28;19925;-61
2023/05/24 13:42:16;;;;;;;;;;;;;;;;;;5033293;28;19921;-61
2023/05/24 13:44:42;;;;;;;;;;;;;;;;;;5033262;28;19925;-61
2023/05/24 13:47:08;;;;;;;;;;;;;;;;;;5014919;28;19925;-61
2023/05/24 13:49:34;;;;;;;;;;;;;;;;;;5032673;28;20383;-61
2023/05/24 13:52:00;;;;;;;;;;;;;;;;;;5033106;28;19921;-61
2023/05/24 13:54:26;;;;;;;;;;;;;;;;;;5032774;28;20551;-61
2023/05/24 13:56:56;;;;;;;;;;;;;;;;;;5031326;28;19932;-61
2023/05/24 13:59:21;;;;;;;;;;;;;;;;;;5033232;28;19932;-61
2023/05/24 14:01:48;;;;;;;;;;;;;;;;;;5032225;28;20359;-61
2023/05/24 14:04:15;;;;;;;;;;;;;;;;;;5033109;28;20255;-60
2023/05/24 14:06:41;;;;;;;;;;;;;;;;;;5032909;28;20370;-61
2023/05/24 14:09:07;;;;;;;;;;;;;;;;;;5033201;28;19928;-61
2023/05/24 14:11:33;;;;;;;;;;;;;;;;;;5033057;28;19924;-61
2023/05/24 14:13:59;;;;;;;;;;;;;;;;;;5033183;28;19995;-61
2023/05/24 14:16:25;;;;;;;;;;;;;;;;;;5032617;28;20111;-61
2023/05/24 14:18:51;;;;;;;;;;;;;;;;;;5031382;28;19956;-61
2023/05/24 14:21:17;;;;;;;;;;;;;;;;;;5032475;28;20019;-60
2023/05/24 14:23:43;;;;;;;;;;;;;;;;;;5032435;28;19931;-59
2023/05/24 14:26:09;;;;;;;;;;;;;;;;;;5032364;28;19929;-59
2023/05/24 14:28:35;;;;;;;;;;;;;;;;;;5032568;28;20044;-59
2023/05/24 14:31:01;;;;;;;;;;;;;;;;;;5032404;28;19996;-59
2023/05/24 14:33:27;;;;;;;;;;;;;;;;;;5032423;28;19979;-60
2023/05/24 14:35:53;;;;;;;;;;;;;;;;;;5032407;28;20374;-59
2023/05/24 14:38:19;;;;;;;;;;;;;;;;;;5032147;28;19925;-60
2023/05/24 14:40:47;;;;;;;;;;;;;;;;;;5032292;28;20016;-60
2023/05/24 14:43:13;;;;;;;;;;;;;;;;;;5032242;28;19929;-60
2023/05/24 14:45:40;;;;;;;;;;;;;;;;;;5031484;28;19947;-60
2023/05/24 14:48:06;;;;;;;;;;;;;;;;;;5030847;28;19921;-60
2023/05/24 14:50:31;;;;;;;;;;;;;;;;;;5030616;28;20541;-60
2023/05/24 14:52:59;;;;;;;;;;;;;;;;;;5031936;28;19975;-60
2023/05/24 14:55:25;;;;;;;;;;;;;;;;;;5032194;28;20007;-59
2023/05/24 14:57:51;;;;;;;;;;;;;;;;;;5032036;28;19935;-59
2023/05/24 15:00:17;;;;;;;;;;;;;;;;;;5032130;28;20333;-59
2023/05/24 15:02:43;;;;;;;;;;;;;;;;;;5031930;28;20012;-59
2023/05/24 15:05:09;;;;;;;;;;;;;;;;;;5031897;28;19971;-59
2023/05/24 15:07:35;;;;;;;;;;;;;;;;;;5031526;28;20386;-59
2023/05/24 15:10:01;;;;;;;;;;;;;;;;;;5030363;28;19921;-59
2023/05/24 15:12:27;;;;;;;;;;;;;;;;;;5031764;28;19971;-59
2023/05/24 15:14:53;;;;;;;;;;;;;;;;;;5031368;28;20018;-59
2023/05/24 15:17:18;;;;;;;;;;;;;;;;;;5031217;28;19921;-60
2023/05/24 15:19:44;;;;;;;;;;;;;;;;;;5031369;28;19936;-59
2023/05/24 15:22:10;;;;;;;;;;;;;;;;;;5031673;28;19921;-60
2023/05/24 15:24:36;;;;;;;;;;;;;;;;;;5031737;28;19948;-60
2023/05/24 15:27:02;;;;;;;;;;;;;;;;;;5031255;28;19920;-60
2023/05/24 15:29:28;;;;;;;;;;;;;;;;;;5031884;28;19925;-60
2023/05/24 15:31:54;;;;;;;;;;;;;;;;;;5031618;28;19925;-60
2023/05/24 15:34:20;;;;;;;;;;;;;;;;;;5031763;28;19925;-60
2023/05/24 15:36:46;;;;;;;;;;;;;;;;;;5031543;28;20278;-59
2023/05/24 15:39:12;;;;;;;;;;;;;;;;;;5030061;28;19929;-59
2023/05/24 15:41:38;;;;;;;;;;;;;;;;;;5031529;28;20274;-59
2023/05/24 15:44:07;;;;;;;;;;;;;;;;;;5031702;28;19929;-59
2023/05/24 15:46:33;;;;;;;;;;;;;;;;;;5031501;28;19921;-59
2023/05/24 15:48:59;;;;;;;;;;;;;;;;;;5031410;28;19921;-59
2023/05/24 15:51:25;;;;;;;;;;;;;;;;;;5031310;28;20028;-59
2023/05/24 15:53:51;;;;;;;;;;;;;;;;;;5031683;28;19927;-59
2023/05/24 15:56:17;;;;;;;;;;;;;;;;;;5033573;28;20326;-59
2023/05/24 15:58:44;;;;;;;;;;;;;;;;;;5035038;28;19987;-59
2023/05/24 16:01:10;;;;;;;;;;;;;;;;;;5034993;28;20271;-60
2023/05/24 16:03:36;;;;;;;;;;;;;;;;;;5033139;28;19921;-59
2023/05/24 16:06:03;;;;;;;;;;;;;;;;;;5034288;28;19925;-59
2023/05/24 16:08:28;;;;;;;;;;;;;;;;;;5034628;28;19921;-59
2023/05/24 16:10:54;;;;;;;;;;;;;;;;;;5034741;28;19921;-59
2023/05/24 16:13:20;;;;;;;;;;;;;;;;;;5034326;28;19925;-59
2023/05/24 16:15:50;;;;;;;;;;;;;;;;;;5034524;28;19931;-59
2023/05/24 16:18:17;;;;;;;;;;;;;;;;;;5034107;28;19925;-59
2023/05/24 16:20:44;;;;;;;;;;;;;;;;;;5034128;28;19929;-59
2023/05/24 16:23:10;;;;;;;;;;;;;;;;;;5034073;28;19959;-61
2023/05/24 16:25:36;;;;;;;;;;;;;;;;;;5034283;28;19921;-59
2023/05/24 16:28:02;;;;;;;;;;;;;;;;;;5034207;28;19952;-59
2023/05/24 16:30:28;;;;;;;;;;;;;;;;;;5034385;28;20370;-60
2023/05/24 16:32:54;;;;;;;;;;;;;;;;;;5034810;28;19929;-61
2023/05/24 16:35:20;;;;;;;;;;;;;;;;;;5034875;28;19990;-61
2023/05/24 16:37:47;;;;;;;;;;;;;;;;;;5034642;28;20255;-61